Homestown, Missouri
Current Conditions -  °F | °C
As of 7:53 AM on Friday 19 Dec 2014 (Local Time) from KHKA Reporting Station
Overcast Overcast  
Wind Chill: -1°   Ceiling: 4500
Heat Index:   Visibility: 7mi
Dew Point:   Wind: 9mph
Humidity: 89%   Direction: 50°NE
Pressure: 30.27"   Gusts: NA
Location:  36.3524°N, 89.8327°W
Report Text: KHKA 191353Z AUTO 05008KT 7SM OVC045 03/01 A3027 RMK AO2 SLP252 T00280011
Loading
Personal Weather Stations






























Interactive Weather Map New forecast layout! Learn more

10-Day Weather Forecast

Advertisements
Track Severe Weather on mobile